createdAt,value
2018-08-24T00:01:03.834Z,0
2018-08-24T00:02:13.645Z,0
2018-08-24T00:03:23.796Z,0
2018-08-24T00:04:33.937Z,0
2018-08-24T00:05:44.125Z,0
2018-08-24T00:06:53.988Z,0
2018-08-24T00:08:04.106Z,0
2018-08-24T00:09:14.260Z,0
2018-08-24T00:10:24.414Z,0
2018-08-24T00:11:34.613Z,0
2018-08-24T00:12:44.865Z,0
2018-08-24T00:13:55.098Z,0
2018-08-24T00:15:05.355Z,0
2018-08-24T00:16:15.516Z,0
2018-08-24T00:17:25.660Z,0
2018-08-24T00:18:35.812Z,0
2018-08-24T00:19:45.959Z,0
2018-08-24T00:20:56.090Z,0
2018-08-24T00:22:05.873Z,0
2018-08-24T00:23:15.745Z,0
2018-08-24T00:24:25.885Z,0
2018-08-24T00:25:35.780Z,0
2018-08-24T00:26:45.924Z,0
2018-08-24T00:27:56.065Z,0
2018-08-24T00:29:06.237Z,0
2018-08-24T00:30:16.392Z,0
2018-08-24T00:31:26.278Z,0
2018-08-24T00:32:36.411Z,0
2018-08-24T00:33:46.534Z,0
2018-08-24T00:34:56.744Z,0
2018-08-24T00:36:06.387Z,0
2018-08-24T00:37:16.594Z,0
2018-08-24T00:38:26.836Z,0
2018-08-24T00:39:36.628Z,0
2018-08-24T00:40:46.763Z,0
2018-08-24T00:41:56.931Z,0
2018-08-24T00:43:06.883Z,0
2018-08-24T00:44:17.041Z,0
2018-08-24T00:45:27.172Z,0
2018-08-24T00:46:37.515Z,0
2018-08-24T00:47:47.739Z,0
2018-08-24T00:48:57.947Z,0
2018-08-24T00:50:07.742Z,0
2018-08-24T00:51:17.864Z,0
2018-08-24T00:52:28.063Z,0
2018-08-24T00:53:38.221Z,0
2018-08-24T00:54:48.372Z,0
2018-08-24T00:55:58.284Z,0
2018-08-24T00:57:08.449Z,0
2018-08-24T00:58:18.337Z,0
2018-08-24T00:59:28.459Z,0
2018-08-24T01:00:38.620Z,0
2018-08-24T01:01:48.769Z,0
2018-08-24T01:02:58.944Z,0
2018-08-24T01:04:09.230Z,0
2018-08-24T01:05:19.114Z,0
2018-08-24T01:06:29.367Z,0
2018-08-24T01:07:39.844Z,0
2018-08-24T01:08:50.053Z,0
2018-08-24T01:10:00.020Z,0
2018-08-24T01:11:10.184Z,0
2018-08-24T01:12:20.425Z,0
2018-08-24T01:13:30.550Z,0
2018-08-24T01:14:40.800Z,0
2018-08-24T01:15:50.981Z,0
2018-08-24T01:17:01.206Z,0
2018-08-24T01:18:11.646Z,0
2018-08-24T01:19:21.788Z,0
2018-08-24T01:20:32.036Z,0
2018-08-24T01:21:42.182Z,0
2018-08-24T01:22:52.327Z,0
2018-08-24T01:24:02.490Z,0
2018-08-24T01:25:12.727Z,0
2018-08-24T01:26:22.959Z,0
2018-08-24T01:27:32.919Z,0
2018-08-24T01:28:44.046Z,0
2018-08-24T01:29:53.870Z,0
2018-08-24T01:31:04.077Z,0
2018-08-24T01:32:14.242Z,0
2018-08-24T01:33:24.443Z,0
2018-08-24T01:34:34.574Z,0
2018-08-24T01:35:44.784Z,0
2018-08-24T01:36:55.145Z,0
2018-08-24T01:38:05.276Z,0
2018-08-24T01:39:15.290Z,0
2018-08-24T01:40:25.414Z,0
2018-08-24T01:41:35.534Z,0
2018-08-24T01:42:45.656Z,0
2018-08-24T01:43:55.787Z,0
2018-08-24T01:45:05.941Z,0
2018-08-24T01:46:16.096Z,0
2018-08-24T01:47:26.217Z,0
2018-08-24T01:48:37.330Z,0
2018-08-24T01:49:47.523Z,0
2018-08-24T01:50:57.787Z,0
2018-08-24T01:52:07.987Z,0
2018-08-24T01:53:18.175Z,0
2018-08-24T01:54:28.386Z,0
2018-08-24T01:55:38.582Z,0
2018-08-24T01:56:48.745Z,0
2018-08-24T01:57:58.898Z,0
2018-08-24T01:59:09.085Z,0
2018-08-24T02:00:19.504Z,0
2018-08-24T02:01:29.728Z,0
2018-08-24T02:02:40.016Z,0
2018-08-24T02:03:50.174Z,0
2018-08-24T02:05:00.387Z,0
2018-08-24T02:06:10.620Z,0
2018-08-24T02:07:20.783Z,0
2018-08-24T02:08:31.034Z,0
2018-08-24T02:09:41.179Z,0
2018-08-24T02:10:51.385Z,0
2018-08-24T02:12:01.340Z,0
2018-08-24T02:13:11.240Z,0
2018-08-24T02:14:21.531Z,0
2018-08-24T02:15:31.697Z,0
2018-08-24T02:16:41.841Z,0
2018-08-24T02:17:51.968Z,0
2018-08-24T02:19:02.109Z,0
2018-08-24T02:20:12.295Z,0
2018-08-24T02:21:22.522Z,0
2018-08-24T02:22:32.372Z,0
2018-08-24T02:23:42.511Z,0
2018-08-24T02:24:52.703Z,0
2018-08-24T02:26:02.935Z,0
2018-08-24T02:27:13.110Z,0
2018-08-24T02:28:23.057Z,0
2018-08-24T02:29:33.215Z,0
2018-08-24T02:30:43.080Z,0
2018-08-24T02:31:52.778Z,0
2018-08-24T02:33:02.906Z,0
2018-08-24T02:34:13.047Z,0
2018-08-24T02:35:22.934Z,0
2018-08-24T02:36:33.083Z,0
2018-08-24T02:37:42.989Z,0
2018-08-24T02:38:53.118Z,0
2018-08-24T02:40:03.243Z,0
2018-08-24T02:41:13.363Z,0
2018-08-24T02:42:24.739Z,0
2018-08-24T02:43:34.506Z,0
2018-08-24T02:44:44.670Z,0
2018-08-24T02:45:54.825Z,0
2018-08-24T02:47:04.954Z,0
2018-08-24T02:48:15.185Z,0
2018-08-24T02:49:25.334Z,0
2018-08-24T02:50:35.465Z,0
2018-08-24T02:51:45.442Z,0
2018-08-24T02:52:55.593Z,0
2018-08-24T02:54:05.783Z,0
2018-08-24T02:55:16.116Z,0
2018-08-24T02:56:26.308Z,0
2018-08-24T02:57:36.477Z,0
2018-08-24T02:58:46.625Z,0
2018-08-24T02:59:56.910Z,0
2018-08-24T03:01:07.094Z,0
2018-08-24T03:02:17.252Z,0
2018-08-24T03:03:27.624Z,0
2018-08-24T03:04:39.001Z,0
2018-08-24T03:05:49.686Z,0
2018-08-24T03:06:59.671Z,0
2018-08-24T03:08:10.792Z,0
2018-08-24T03:09:24.641Z,0
2018-08-24T03:10:39.585Z,0
2018-08-24T03:11:49.907Z,0
2018-08-24T03:13:00.174Z,0
2018-08-24T03:14:10.045Z,0
2018-08-24T03:15:19.914Z,0
2018-08-24T03:16:30.572Z,0
2018-08-24T03:17:40.982Z,0
2018-08-24T03:18:51.344Z,0
2018-08-24T03:20:02.017Z,0
2018-08-24T03:21:12.177Z,0
2018-08-24T03:22:22.344Z,0
2018-08-24T03:23:32.221Z,0
2018-08-24T03:24:42.367Z,0
2018-08-24T03:25:52.246Z,0
2018-08-24T03:27:02.378Z,0
2018-08-24T03:28:12.520Z,0
2018-08-24T03:29:22.443Z,0
2018-08-24T03:30:32.620Z,0
2018-08-24T03:31:42.488Z,0
2018-08-24T03:32:52.381Z,0
2018-08-24T03:34:02.268Z,0
2018-08-24T03:35:12.464Z,0
2018-08-24T03:36:22.681Z,0
2018-08-24T03:37:32.832Z,0
2018-08-24T03:38:43.041Z,0
2018-08-24T03:39:53.218Z,0
2018-08-24T03:41:03.383Z,0
2018-08-24T03:42:13.606Z,0
2018-08-24T03:43:23.490Z,0
2018-08-24T03:44:33.285Z,0
2018-08-24T03:45:43.601Z,0
2018-08-24T03:46:53.803Z,0
2018-08-24T03:48:03.931Z,0
2018-08-24T03:49:14.140Z,0
2018-08-24T03:50:24.372Z,0
2018-08-24T03:51:34.533Z,0
2018-08-24T03:52:44.821Z,0
2018-08-24T03:53:54.706Z,0
2018-08-24T03:55:04.842Z,0
2018-08-24T03:56:14.981Z,0
2018-08-24T03:57:25.154Z,0
2018-08-24T03:58:35.317Z,0
2018-08-24T03:59:45.452Z,0
2018-08-24T04:00:55.594Z,0
2018-08-24T04:02:05.955Z,0
2018-08-24T04:03:16.097Z,0
2018-08-24T04:04:26.271Z,0
2018-08-24T04:05:36.427Z,0
2018-08-24T04:06:46.551Z,0
2018-08-24T04:07:56.731Z,0
2018-08-24T04:09:06.877Z,0
2018-08-24T04:10:17.057Z,0
2018-08-24T04:11:27.038Z,0
2018-08-24T04:12:37.011Z,0
2018-08-24T04:13:47.235Z,0
2018-08-24T04:14:57.443Z,5
2018-08-24T04:16:07.216Z,5
2018-08-24T04:17:17.395Z,5
2018-08-24T04:18:27.663Z,5
2018-08-24T04:19:38.673Z,5
2018-08-24T04:20:48.887Z,5
2018-08-24T04:21:59.010Z,5
2018-08-24T04:23:09.154Z,5
2018-08-24T04:24:19.305Z,5
2018-08-24T04:25:29.515Z,10
2018-08-24T04:26:39.700Z,10
2018-08-24T04:27:49.627Z,10
2018-08-24T04:28:59.507Z,10
2018-08-24T04:30:09.662Z,10
2018-08-24T04:31:19.030Z,10
2018-08-24T04:32:29.213Z,10
2018-08-24T04:33:38.729Z,10
2018-08-24T04:34:48.944Z,10
2018-08-24T04:35:59.148Z,15
2018-08-24T04:37:09.009Z,10
2018-08-24T04:38:19.138Z,15
2018-08-24T04:39:29.349Z,15
2018-08-24T04:40:39.744Z,15
2018-08-24T04:41:49.613Z,15
2018-08-24T04:42:59.785Z,15
2018-08-24T04:44:09.956Z,20
2018-08-24T04:45:20.088Z,20
2018-08-24T04:46:30.233Z,20
2018-08-24T04:47:40.501Z,25
2018-08-24T04:48:50.630Z,25
2018-08-24T04:50:00.857Z,25
2018-08-24T04:51:11.001Z,25
2018-08-24T04:52:21.178Z,30
2018-08-24T04:53:31.340Z,30
2018-08-24T04:54:41.530Z,25
2018-08-24T04:55:51.748Z,25
2018-08-24T04:57:01.903Z,25
2018-08-24T04:58:12.289Z,25
2018-08-24T04:59:22.089Z,25
2018-08-24T05:00:32.230Z,30
2018-08-24T05:01:42.139Z,30
2018-08-24T05:02:52.278Z,30
2018-08-24T05:04:02.445Z,35
2018-08-24T05:05:12.729Z,35
2018-08-24T05:06:22.612Z,35
2018-08-24T05:07:32.758Z,40
2018-08-24T05:08:42.907Z,40
2018-08-24T05:09:52.777Z,45
2018-08-24T05:11:02.953Z,45
2018-08-24T05:12:13.113Z,50
2018-08-24T05:13:23.247Z,55
2018-08-24T05:14:33.441Z,50
2018-08-24T05:15:43.372Z,60
2018-08-24T05:16:53.508Z,65
2018-08-24T05:18:03.640Z,65
2018-08-24T05:19:13.793Z,70
2018-08-24T05:20:24.030Z,65
2018-08-24T05:21:34.596Z,70
2018-08-24T05:22:44.737Z,70
2018-08-24T05:23:54.854Z,70
2018-08-24T05:25:05.121Z,75
2018-08-24T05:26:15.315Z,75
2018-08-24T05:27:25.658Z,85
2018-08-24T05:28:35.832Z,90
2018-08-24T05:29:45.971Z,100
2018-08-24T05:30:56.101Z,105
2018-08-24T05:32:06.260Z,105
2018-08-24T05:33:16.394Z,100
2018-08-24T05:34:26.010Z,95
2018-08-24T05:35:36.542Z,100
2018-08-24T05:36:46.412Z,90
2018-08-24T05:37:56.563Z,90
2018-08-24T05:39:06.720Z,85
2018-08-24T05:40:16.621Z,80
2018-08-24T05:41:26.416Z,80
2018-08-24T05:42:36.580Z,80
2018-08-24T05:43:46.709Z,80
2018-08-24T05:44:56.864Z,85
2018-08-24T05:46:07.017Z,95
2018-08-24T05:47:17.188Z,95
2018-08-24T05:48:27.352Z,105
2018-08-24T05:49:37.598Z,120
2018-08-24T05:50:47.797Z,120
2018-08-24T05:51:57.951Z,120
2018-08-24T05:53:08.201Z,120
2018-08-24T05:54:19.339Z,120
2018-08-24T05:55:29.510Z,115
2018-08-24T05:56:39.646Z,115
2018-08-24T05:57:49.830Z,120
2018-08-24T05:58:59.759Z,125
2018-08-24T06:00:09.889Z,120
2018-08-24T06:01:20.025Z,115
2018-08-24T06:02:30.426Z,125
2018-08-24T06:03:40.614Z,130
2018-08-24T06:04:50.745Z,130
2018-08-24T06:06:01.098Z,130
2018-08-24T06:07:12.199Z,120
2018-08-24T06:08:22.344Z,115
2018-08-24T06:09:32.223Z,110
2018-08-24T06:10:42.205Z,115
2018-08-24T06:11:52.095Z,120
2018-08-24T06:13:02.225Z,125
2018-08-24T06:14:12.366Z,140
2018-08-24T06:15:22.488Z,145
2018-08-24T06:16:32.744Z,150
2018-08-24T06:17:42.905Z,150
2018-08-24T06:18:53.018Z,155
2018-08-24T06:20:03.144Z,155
2018-08-24T06:21:13.269Z,140
2018-08-24T06:22:23.464Z,155
2018-08-24T06:23:33.613Z,155
2018-08-24T06:24:43.999Z,155
2018-08-24T06:25:54.114Z,160
2018-08-24T06:27:04.330Z,155
2018-08-24T06:28:14.574Z,150
2018-08-24T06:29:24.783Z,150
2018-08-24T06:30:34.995Z,145
2018-08-24T06:31:45.176Z,140
2018-08-24T06:32:55.705Z,120
2018-08-24T06:34:05.930Z,130
2018-08-24T06:35:16.110Z,145
2018-08-24T06:36:26.244Z,155
2018-08-24T06:37:36.381Z,160
2018-08-24T06:38:46.256Z,165
2018-08-24T06:39:56.380Z,170
2018-08-24T06:41:06.501Z,175
2018-08-24T06:42:16.635Z,175
2018-08-24T06:43:26.509Z,180
2018-08-24T06:44:36.675Z,180
2018-08-24T06:45:46.904Z,180
2018-08-24T06:46:57.054Z,200
2018-08-24T06:48:07.326Z,220
2018-08-24T06:49:17.512Z,230
2018-08-24T06:50:27.384Z,260
2018-08-24T06:51:37.587Z,270
2018-08-24T06:52:47.838Z,250
2018-08-24T06:53:58.484Z,220
2018-08-24T06:55:08.743Z,205
2018-08-24T06:56:18.917Z,195
2018-08-24T06:57:29.097Z,195
2018-08-24T06:58:39.469Z,205
2018-08-24T06:59:49.804Z,220
2018-08-24T07:00:59.932Z,220
2018-08-24T07:02:11.017Z,210
2018-08-24T07:03:20.652Z,210
2018-08-24T07:04:30.472Z,215
2018-08-24T07:05:40.712Z,225
2018-08-24T07:06:50.981Z,245
2018-08-24T07:08:01.145Z,260
2018-08-24T07:09:11.286Z,260
2018-08-24T07:10:21.079Z,255
2018-08-24T07:11:31.342Z,250
2018-08-24T07:12:41.538Z,255
2018-08-24T07:13:51.764Z,260
2018-08-24T07:15:01.943Z,260
2018-08-24T07:16:12.137Z,245
2018-08-24T07:17:22.339Z,245
2018-08-24T07:18:32.512Z,245
2018-08-24T07:19:42.653Z,250
2018-08-24T07:20:52.777Z,255
2018-08-24T07:22:03.324Z,260
2018-08-24T07:23:13.507Z,275
2018-08-24T07:24:23.404Z,285
2018-08-24T07:25:33.534Z,285
2018-08-24T07:26:43.724Z,315
2018-08-24T07:27:53.880Z,350
2018-08-24T07:29:04.044Z,330
2018-08-24T07:30:16.718Z,235
2018-08-24T07:31:26.874Z,170
2018-08-24T07:32:37.016Z,170
2018-08-24T07:33:47.187Z,165
2018-08-24T07:34:58.304Z,130
2018-08-24T07:36:08.481Z,130
2018-08-24T07:37:18.724Z,135
2018-08-24T07:38:29.055Z,170
2018-08-24T07:39:39.205Z,185
2018-08-24T07:40:49.361Z,180
2018-08-24T07:42:00.128Z,150
2018-08-24T07:43:10.297Z,140
2018-08-24T07:44:20.459Z,160
2018-08-24T07:45:30.627Z,195
2018-08-24T07:46:40.803Z,245
2018-08-24T07:47:50.937Z,295
2018-08-24T07:49:01.063Z,295
2018-08-24T07:50:11.238Z,230
2018-08-24T07:51:21.380Z,220
2018-08-24T07:52:31.257Z,250
2018-08-24T07:53:41.383Z,330
2018-08-24T07:54:51.066Z,415
2018-08-24T07:56:00.825Z,460
2018-08-24T07:57:11.724Z,375
2018-08-24T07:58:22.075Z,335
2018-08-24T07:59:32.278Z,390
2018-08-24T08:00:42.353Z,410
2018-08-24T08:01:52.541Z,420
2018-08-24T08:03:02.681Z,395
2018-08-24T08:04:12.570Z,335
2018-08-24T08:05:23.227Z,305
2018-08-24T08:06:33.446Z,335
2018-08-24T08:07:43.294Z,365
2018-08-24T08:08:53.432Z,480
2018-08-24T08:10:03.596Z,510
2018-08-24T08:11:13.726Z,490
2018-08-24T08:12:23.871Z,370
2018-08-24T08:13:33.749Z,240
2018-08-24T08:14:43.712Z,205
2018-08-24T08:15:53.972Z,165
2018-08-24T08:17:03.860Z,130
2018-08-24T08:18:14.458Z,100
2018-08-24T08:19:24.759Z,90
2018-08-24T08:20:34.686Z,75
2018-08-24T08:21:45.810Z,70
2018-08-24T08:22:55.986Z,55
2018-08-24T08:24:06.152Z,40
2018-08-24T08:25:16.276Z,30
2018-08-24T08:26:26.467Z,35
2018-08-24T08:27:36.656Z,40
2018-08-24T08:28:46.789Z,45
2018-08-24T08:29:56.672Z,55
2018-08-24T08:31:06.931Z,70
2018-08-24T08:32:16.844Z,65
2018-08-24T08:33:26.994Z,60
2018-08-24T08:34:37.159Z,70
2018-08-24T08:35:47.318Z,80
2018-08-24T08:36:57.496Z,85
2018-08-24T08:38:07.391Z,85
2018-08-24T08:39:17.934Z,90
2018-08-24T08:40:27.845Z,95
2018-08-24T08:41:37.963Z,100
2018-08-24T08:42:48.098Z,110
2018-08-24T08:43:58.235Z,120
2018-08-24T08:45:08.068Z,125
2018-08-24T08:46:18.228Z,140
2018-08-24T08:47:28.009Z,175
2018-08-24T08:48:38.161Z,200
2018-08-24T08:49:48.349Z,215
2018-08-24T08:50:58.479Z,225
2018-08-24T08:52:08.357Z,225
2018-08-24T08:53:18.624Z,210
2018-08-24T08:54:28.473Z,200
2018-08-24T08:55:38.683Z,210
2018-08-24T08:56:48.961Z,215
2018-08-24T08:57:59.113Z,215
2018-08-24T08:59:09.315Z,205
2018-08-24T09:00:19.527Z,185
2018-08-24T09:01:29.415Z,155
2018-08-24T09:02:39.553Z,140
2018-08-24T09:03:49.759Z,140
2018-08-24T09:04:59.865Z,145
2018-08-24T09:06:10.507Z,160
2018-08-24T09:07:20.764Z,180
2018-08-24T09:08:30.401Z,185
2018-08-24T09:09:40.603Z,215
2018-08-24T09:11:22.417Z,220
2018-08-24T09:12:32.581Z,215
2018-08-24T09:13:42.729Z,210
2018-08-24T09:14:52.884Z,215
2018-08-24T09:16:03.014Z,230
2018-08-24T09:17:13.299Z,245
2018-08-24T09:18:23.640Z,240
2018-08-24T09:19:33.862Z,240
2018-08-24T09:20:44.025Z,245
2018-08-24T09:21:55.143Z,220
2018-08-24T09:23:05.365Z,215
2018-08-24T09:24:15.603Z,245
2018-08-24T09:25:26.099Z,285
2018-08-24T09:26:36.318Z,300
2018-08-24T09:27:46.206Z,300
2018-08-24T09:28:56.376Z,310
2018-08-24T09:30:06.296Z,370
2018-08-24T09:31:16.139Z,465
2018-08-24T09:32:26.090Z,610
2018-08-24T09:33:36.368Z,720
2018-08-24T09:34:46.745Z,970
2018-08-24T09:35:56.885Z,880
2018-08-24T09:37:07.025Z,1450
2018-08-24T09:38:16.672Z,1445
2018-08-24T09:39:26.549Z,1335
2018-08-24T09:40:36.430Z,1310
2018-08-24T09:41:46.608Z,1115
2018-08-24T09:42:56.795Z,1060
2018-08-24T09:44:07.037Z,1260
2018-08-24T09:45:17.260Z,1295
2018-08-24T09:46:28.466Z,1205
2018-08-24T09:47:38.641Z,1340
2018-08-24T09:48:48.932Z,1350
2018-08-24T09:49:59.269Z,815
2018-08-24T09:51:09.158Z,1455
2018-08-24T09:52:19.104Z,1255
2018-08-24T09:53:29.268Z,1230
2018-08-24T09:54:39.477Z,915
2018-08-24T09:55:49.716Z,1005
2018-08-24T09:56:59.997Z,1055
2018-08-24T09:58:10.244Z,1150
2018-08-24T09:59:20.167Z,815
2018-08-24T10:00:31.511Z,1215
2018-08-24T10:01:41.666Z,755
2018-08-24T10:02:52.346Z,1495
2018-08-24T10:04:02.721Z,1045
2018-08-24T10:05:12.910Z,1050
2018-08-24T10:06:23.674Z,995
2018-08-24T10:07:33.886Z,1395
2018-08-24T10:08:44.062Z,1125
2018-08-24T10:09:54.281Z,1000
2018-08-24T10:11:04.466Z,1080
2018-08-24T10:12:14.745Z,865
2018-08-24T10:13:25.799Z,885
2018-08-24T10:14:36.363Z,975
2018-08-24T10:15:46.325Z,935
2018-08-24T10:16:56.311Z,1315
2018-08-24T10:18:06.526Z,1360
2018-08-24T10:19:16.894Z,1415
2018-08-24T10:20:27.075Z,1330
2018-08-24T10:21:37.248Z,1615
2018-08-24T10:22:47.399Z,1485
2018-08-24T10:23:57.818Z,1150
2018-08-24T10:25:07.869Z,1360
2018-08-24T10:26:18.039Z,1985
2018-08-24T10:27:28.173Z,1980
2018-08-24T10:28:38.333Z,1125
2018-08-24T10:29:48.611Z,1820
2018-08-24T10:30:58.852Z,1630
2018-08-24T10:32:09.001Z,1185
2018-08-24T10:33:19.331Z,1490
2018-08-24T10:34:29.559Z,1250
2018-08-24T10:35:39.779Z,1145
2018-08-24T10:36:49.941Z,895
2018-08-24T10:37:59.845Z,730
2018-08-24T10:39:10.443Z,775
2018-08-24T10:40:20.691Z,710
2018-08-24T10:41:30.588Z,710
2018-08-24T10:42:40.831Z,790
2018-08-24T10:43:51.048Z,685
2018-08-24T10:45:01.236Z,555
2018-08-24T10:46:11.366Z,535
2018-08-24T10:47:21.913Z,515
2018-08-24T10:48:32.076Z,500
2018-08-24T10:49:42.571Z,425
2018-08-24T10:50:52.480Z,380
2018-08-24T10:52:02.743Z,420
2018-08-24T10:53:12.335Z,425
2018-08-24T10:54:22.711Z,400
2018-08-24T10:55:32.663Z,375
2018-08-24T10:56:42.569Z,345
2018-08-24T10:57:52.740Z,325
2018-08-24T10:59:02.875Z,305
2018-08-24T11:00:13.005Z,270
2018-08-24T11:01:23.147Z,260
2018-08-24T11:02:33.293Z,260
2018-08-24T11:03:43.736Z,260
2018-08-24T11:04:53.919Z,260
2018-08-24T11:06:04.075Z,255
2018-08-24T11:07:14.440Z,250
2018-08-24T11:08:24.616Z,240
2018-08-24T11:09:34.777Z,220
2018-08-24T11:10:44.938Z,215
2018-08-24T11:11:55.097Z,210
2018-08-24T11:13:04.722Z,215
2018-08-24T11:14:14.827Z,210
2018-08-24T11:15:24.980Z,215
2018-08-24T11:16:35.165Z,220
2018-08-24T11:17:45.301Z,220
2018-08-24T11:18:55.478Z,215
2018-08-24T11:20:05.735Z,215
2018-08-24T11:21:15.971Z,220
2018-08-24T11:22:26.182Z,245
2018-08-24T11:23:36.404Z,275
2018-08-24T11:24:46.693Z,305
2018-08-24T11:25:56.831Z,355
2018-08-24T11:27:07.024Z,420
2018-08-24T11:28:17.192Z,460
2018-08-24T11:29:26.687Z,475
2018-08-24T11:30:36.913Z,560
2018-08-24T11:31:46.574Z,700
2018-08-24T11:32:56.725Z,600
2018-08-24T11:34:06.980Z,460
2018-08-24T11:35:17.170Z,385
2018-08-24T11:36:28.048Z,350
2018-08-24T11:37:38.222Z,315
2018-08-24T11:38:48.372Z,285
2018-08-24T11:39:58.509Z,250
2018-08-24T11:41:08.661Z,230
2018-08-24T11:42:19.517Z,210
2018-08-24T11:43:29.808Z,200
2018-08-24T11:44:39.988Z,195
2018-08-24T11:45:50.120Z,200
2018-08-24T11:47:00.287Z,205
2018-08-24T11:48:10.635Z,220
2018-08-24T11:49:20.251Z,240
2018-08-24T11:50:30.416Z,255
2018-08-24T11:51:40.639Z,235
2018-08-24T11:52:50.572Z,250
2018-08-24T11:54:00.852Z,280
2018-08-24T11:55:11.007Z,285
2018-08-24T11:56:21.187Z,310
2018-08-24T11:57:31.456Z,350
2018-08-24T11:58:41.658Z,370
2018-08-24T11:59:52.009Z,385
2018-08-24T12:01:01.983Z,390
2018-08-24T12:02:12.640Z,390
2018-08-24T12:03:22.897Z,405
2018-08-24T12:04:33.076Z,430
2018-08-24T12:05:43.257Z,430
2018-08-24T12:06:53.406Z,435
2018-08-24T12:08:03.896Z,450
2018-08-24T12:09:14.231Z,500
2018-08-24T12:10:24.389Z,510
2018-08-24T12:11:34.581Z,550
2018-08-24T12:12:44.669Z,595
2018-08-24T12:13:55.078Z,635
2018-08-24T12:15:05.276Z,620
2018-08-24T12:16:15.183Z,705
2018-08-24T12:17:25.366Z,785
2018-08-24T12:18:35.068Z,1005
2018-08-24T12:19:44.978Z,890
2018-08-24T12:20:55.415Z,810
2018-08-24T12:22:05.318Z,620
2018-08-24T12:23:15.505Z,565
2018-08-24T12:24:25.899Z,750
2018-08-24T12:25:36.189Z,730
2018-08-24T12:26:46.412Z,755
2018-08-24T12:27:56.614Z,710
2018-08-24T12:29:06.782Z,695
2018-08-24T12:30:16.672Z,595
2018-08-24T12:31:26.812Z,570
2018-08-24T12:32:37.076Z,715
2018-08-24T12:33:47.328Z,765
2018-08-24T12:34:58.050Z,635
2018-08-24T12:36:07.860Z,575
2018-08-24T12:37:18.015Z,625
2018-08-24T12:38:28.199Z,810
2018-08-24T12:39:38.353Z,660
2018-08-24T12:40:48.248Z,630
2018-08-24T12:41:58.032Z,825
2018-08-24T12:43:08.234Z,735
2018-08-24T12:44:18.464Z,715
2018-08-24T12:45:28.488Z,1190
2018-08-24T12:46:38.686Z,1090
2018-08-24T12:47:48.923Z,1110
2018-08-24T12:48:59.285Z,810
2018-08-24T12:50:09.497Z,555
2018-08-24T12:51:19.669Z,855
2018-08-24T12:52:29.904Z,1000
2018-08-24T12:53:40.119Z,1055
2018-08-24T12:54:50.410Z,975
2018-08-24T12:56:00.557Z,590
2018-08-24T12:57:10.756Z,515
2018-08-24T12:58:21.036Z,350
2018-08-24T12:59:31.216Z,300
2018-08-24T13:00:41.476Z,225
2018-08-24T13:01:51.659Z,185
2018-08-24T13:03:01.900Z,130
2018-08-24T13:04:11.802Z,85
2018-08-24T13:05:21.980Z,75
2018-08-24T13:06:31.888Z,95
2018-08-24T13:07:43.056Z,110
2018-08-24T13:08:53.701Z,110
2018-08-24T13:10:03.877Z,80
2018-08-24T13:11:14.124Z,50
2018-08-24T13:12:24.445Z,40
2018-08-24T13:13:34.630Z,30
2018-08-24T13:14:44.467Z,25
2018-08-24T13:15:54.794Z,25
2018-08-24T13:17:04.986Z,25
2018-08-24T13:18:15.887Z,20
2018-08-24T13:19:26.085Z,25
2018-08-24T13:20:36.012Z,25
2018-08-24T13:21:46.116Z,25
2018-08-24T13:22:56.370Z,30
2018-08-24T13:24:06.571Z,30
2018-08-24T13:25:16.505Z,35
2018-08-24T13:26:26.704Z,45
2018-08-24T13:27:37.020Z,55
2018-08-24T13:28:47.207Z,70
2018-08-24T13:29:57.391Z,75
2018-08-24T13:31:07.560Z,70
2018-08-24T13:32:17.751Z,60
2018-08-24T13:33:27.953Z,55
2018-08-24T13:34:37.919Z,50
2018-08-24T13:35:48.093Z,55
2018-08-24T13:36:58.449Z,65
2018-08-24T13:38:08.702Z,80
2018-08-24T13:39:18.899Z,100
2018-08-24T13:40:29.097Z,130
2018-08-24T13:41:39.435Z,150
2018-08-24T13:42:49.404Z,170
2018-08-24T13:43:59.183Z,175
2018-08-24T13:45:09.373Z,200
2018-08-24T13:46:19.534Z,215
2018-08-24T13:47:31.013Z,185
2018-08-24T13:48:40.960Z,170
2018-08-24T13:49:51.128Z,175
2018-08-24T13:51:01.321Z,180
2018-08-24T13:52:11.253Z,160
2018-08-24T13:53:21.487Z,155
2018-08-24T13:54:31.694Z,175
2018-08-24T13:55:41.870Z,200
2018-08-24T13:56:52.130Z,230
2018-08-24T13:58:02.479Z,245
2018-08-24T13:59:12.324Z,250
2018-08-24T14:00:22.510Z,255
2018-08-24T14:01:32.680Z,240
2018-08-24T14:02:42.619Z,225
2018-08-24T14:03:52.936Z,215
2018-08-24T14:05:02.868Z,215
2018-08-24T14:06:13.108Z,215
2018-08-24T14:07:23.277Z,210
2018-08-24T14:08:33.436Z,200
2018-08-24T14:09:44.598Z,165
2018-08-24T14:10:55.766Z,155
2018-08-24T14:12:06.051Z,150
2018-08-24T14:13:16.779Z,145
2018-08-24T14:14:26.845Z,135
2018-08-24T14:15:37.090Z,130
2018-08-24T14:16:47.352Z,135
2018-08-24T14:17:57.616Z,140
2018-08-24T14:19:07.783Z,145
2018-08-24T14:20:17.995Z,160
2018-08-24T14:21:27.959Z,150
2018-08-24T14:22:37.868Z,145
2018-08-24T14:23:48.256Z,140
2018-08-24T14:24:58.464Z,145
2018-08-24T14:26:08.151Z,150
2018-08-24T14:27:18.366Z,155
2018-08-24T14:28:28.637Z,160
2018-08-24T14:29:38.948Z,165
2018-08-24T14:30:48.550Z,165
2018-08-24T14:31:58.796Z,165
2018-08-24T14:33:08.983Z,170
2018-08-24T14:34:19.247Z,170
2018-08-24T14:35:29.477Z,175
2018-08-24T14:36:39.707Z,165
2018-08-24T14:37:49.907Z,150
2018-08-24T14:39:00.142Z,135
2018-08-24T14:40:10.357Z,130
2018-08-24T14:41:20.553Z,135
2018-08-24T14:42:30.745Z,140
2018-08-24T14:43:40.964Z,160
2018-08-24T14:44:51.109Z,200
2018-08-24T14:46:01.492Z,215
2018-08-24T14:47:12.105Z,215
2018-08-24T14:48:23.010Z,230
2018-08-24T14:49:33.312Z,255
2018-08-24T14:50:43.504Z,280
2018-08-24T14:51:53.720Z,300
2018-08-24T14:53:03.953Z,340
2018-08-24T14:54:14.152Z,775
2018-08-24T14:55:24.595Z,540
2018-08-24T14:56:34.520Z,425
2018-08-24T14:57:45.213Z,380
2018-08-24T14:58:55.491Z,345
2018-08-24T15:00:05.752Z,295
2018-08-24T15:01:15.970Z,285
2018-08-24T15:02:25.671Z,440
2018-08-24T15:03:35.896Z,240
2018-08-24T15:04:46.371Z,215
2018-08-24T15:05:56.658Z,235
2018-08-24T15:07:06.878Z,245
2018-08-24T15:08:17.085Z,285
2018-08-24T15:09:27.580Z,225
2018-08-24T15:10:37.783Z,215
2018-08-24T15:11:47.980Z,220
2018-08-24T15:12:59.223Z,250
2018-08-24T15:14:09.500Z,345
2018-08-24T15:15:19.948Z,450
2018-08-24T15:16:30.270Z,470
2018-08-24T15:17:40.441Z,790
2018-08-24T15:18:50.604Z,515
2018-08-24T15:20:00.806Z,570
2018-08-24T15:21:11.237Z,730
2018-08-24T15:22:21.397Z,650
2018-08-24T15:23:31.858Z,590
2018-08-24T15:24:42.026Z,475
2018-08-24T15:25:52.346Z,765
2018-08-24T15:27:02.631Z,850
2018-08-24T15:28:12.880Z,850
2018-08-24T15:29:23.340Z,795
2018-08-24T15:30:33.567Z,610
2018-08-24T15:31:43.760Z,265
2018-08-24T15:32:53.965Z,280
2018-08-24T15:34:04.175Z,740
2018-08-24T15:35:14.254Z,450
2018-08-24T15:36:24.494Z,360
2018-08-24T15:37:34.747Z,335
2018-08-24T15:38:44.911Z,735
2018-08-24T15:39:55.173Z,660
2018-08-24T15:41:05.108Z,340
2018-08-24T15:42:15.251Z,285
2018-08-24T15:43:25.212Z,260
2018-08-24T15:44:35.425Z,235
2018-08-24T15:45:45.636Z,225
2018-08-24T15:46:55.850Z,215
2018-08-24T15:48:06.231Z,220
2018-08-24T15:49:16.441Z,200
2018-08-24T15:50:26.623Z,185
2018-08-24T15:51:36.819Z,175
2018-08-24T15:52:47.015Z,165
2018-08-24T15:53:56.913Z,155
2018-08-24T15:55:07.104Z,160
2018-08-24T15:56:17.176Z,170
2018-08-24T15:57:27.359Z,205
2018-08-24T15:58:37.590Z,205
2018-08-24T15:59:47.811Z,210
2018-08-24T16:00:57.982Z,210
2018-08-24T16:02:08.235Z,235
2018-08-24T16:03:18.394Z,260
2018-08-24T16:04:28.673Z,255
2018-08-24T16:05:38.652Z,255
2018-08-24T16:06:48.553Z,255
2018-08-24T16:07:58.874Z,260
2018-08-24T16:09:09.069Z,265
2018-08-24T16:10:19.060Z,265
2018-08-24T16:11:29.237Z,265
2018-08-24T16:12:39.146Z,265
2018-08-24T16:13:49.186Z,275
2018-08-24T16:14:59.417Z,265
2018-08-24T16:16:09.615Z,245
2018-08-24T16:17:19.831Z,220
2018-08-24T16:18:30.115Z,175
2018-08-24T16:19:40.356Z,160
2018-08-24T16:20:50.650Z,165
2018-08-24T16:22:01.220Z,155
2018-08-24T16:23:11.495Z,150
2018-08-24T16:24:21.814Z,145
2018-08-24T16:25:32.489Z,140
2018-08-24T16:26:42.966Z,145
2018-08-24T16:27:53.173Z,155